TIV2A EGLC-EGJJ
Flight info
| Callsign | TIV2A |
|---|---|
| Flight time | 0h 53m |
| Altitude | 26000 |
| Route | SOQQA M87 EKNIV M91 LYD M189 NEVIL G27 ANGLO G273 BEVAV |
| Aircraft | C25B/M-SDE2E3FGHRWXY/LB1 |
Departure
| Time | 2026-05-04 19:40 |
|---|---|
| Airport | London City Airport (EGLC) |
Arrival
| Time | 2026-05-04 20:33 |
|---|---|
| Airport | Jersey Airport (EGJJ) |
| Time | Latitude | Longitude | Altitude | Speed | Heading |
|---|---|---|---|---|---|
| 2026-05-04 19:02 | 51.50438 | 0.04818 | 20 ft | 0 kts | 313° |
| 2026-05-04 19:35 | 51.50458 | 0.04798 | 21 ft | 4 kts | 330° |
| 2026-05-04 19:35 | 51.50469 | 0.04764 | 20 ft | 3 kts | 270° |
| 2026-05-04 19:36 | 51.50470 | 0.04724 | 20 ft | 4 kts | 274° |
| 2026-05-04 19:36 | 51.50473 | 0.04662 | 20 ft | 7 kts | 273° |
| 2026-05-04 19:36 | 51.50474 | 0.04573 | 20 ft | 9 kts | 269° |
| 2026-05-04 19:36 | 51.50476 | 0.04554 | 23 ft | 3 kts | 274° |
| 2026-05-04 19:37 | 51.50478 | 0.04493 | 20 ft | 6 kts | 282° |
| 2026-05-04 19:37 | 51.50495 | 0.04447 | 21 ft | 3 kts | 331° |
| 2026-05-04 19:37 | 51.50515 | 0.04441 | 20 ft | 2 kts | 4° |
| 2026-05-04 19:37 | 51.50534 | 0.04443 | 20 ft | 4 kts | 6° |
| 2026-05-04 19:38 | 51.50564 | 0.04460 | 20 ft | 2 kts | 85° |
| 2026-05-04 19:38 | 51.50558 | 0.04504 | 20 ft | 6 kts | 102° |
| 2026-05-04 19:38 | 51.50554 | 0.04554 | 20 ft | 0 kts | 92° |
| 2026-05-04 19:39 | 51.50552 | 0.04588 | 20 ft | 14 kts | 90° |
| 2026-05-04 19:39 | 51.50527 | 0.05356 | 20 ft | 128 kts | 93° |
| 2026-05-04 19:39 | 51.50454 | 0.07243 | 335 ft | 200 kts | 92° |
| 2026-05-04 19:40 | 51.50425 | 0.09824 | 1050 ft | 255 kts | 89° |
| 2026-05-04 19:40 | 51.50510 | 0.12680 | 1911 ft | 264 kts | 82° |
| 2026-05-04 19:40 | 51.50843 | 0.15432 | 2435 ft | 254 kts | 73° |
| 2026-05-04 19:40 | 51.51175 | 0.17293 | 2439 ft | 268 kts | 71° |
| 2026-05-04 19:41 | 51.52060 | 0.20007 | 2543 ft | 278 kts | 60° |
| 2026-05-04 19:41 | 51.52692 | 0.22950 | 2941 ft | 281 kts | 73° |
| 2026-05-04 19:41 | 51.54105 | 0.26487 | 3006 ft | 296 kts | 46° |
| 2026-05-04 19:41 | 51.55702 | 0.28657 | 3012 ft | 306 kts | 34° |
| 2026-05-04 19:42 | 51.57386 | 0.30727 | 3186 ft | 308 kts | 48° |
| 2026-05-04 19:42 | 51.58167 | 0.32684 | 3267 ft | 305 kts | 59° |
| 2026-05-04 19:42 | 51.59272 | 0.35271 | 3287 ft | 267 kts | 51° |
| 2026-05-04 19:42 | 51.60147 | 0.37548 | 3303 ft | 236 kts | 71° |
| 2026-05-04 19:43 | 51.60423 | 0.40178 | 3264 ft | 242 kts | 82° |
| 2026-05-04 19:43 | 51.60240 | 0.42891 | 3256 ft | 247 kts | 101° |
| 2026-05-04 19:43 | 51.59967 | 0.45601 | 3310 ft | 245 kts | 93° |
| 2026-05-04 19:43 | 51.59770 | 0.48246 | 3719 ft | 231 kts | 97° |
| 2026-05-04 19:44 | 51.59486 | 0.50848 | 4090 ft | 238 kts | 97° |
| 2026-05-04 19:44 | 51.59143 | 0.53446 | 4861 ft | 242 kts | 109° |
| 2026-05-04 19:44 | 51.58275 | 0.55802 | 5536 ft | 247 kts | 127° |
| 2026-05-04 19:44 | 51.57008 | 0.57648 | 6270 ft | 248 kts | 149° |
| 2026-05-04 19:45 | 51.55471 | 0.58767 | 7012 ft | 245 kts | 167° |
| 2026-05-04 19:45 | 51.53801 | 0.59177 | 7781 ft | 240 kts | 172° |
| 2026-05-04 19:45 | 51.52117 | 0.59666 | 8792 ft | 259 kts | 171° |
| 2026-05-04 19:45 | 51.50228 | 0.60132 | 9859 ft | 288 kts | 172° |
| 2026-05-04 19:46 | 51.48173 | 0.60650 | 10843 ft | 312 kts | 171° |
| 2026-05-04 19:46 | 51.45953 | 0.61202 | 11865 ft | 332 kts | 171° |
| 2026-05-04 19:46 | 51.43625 | 0.61798 | 12912 ft | 348 kts | 171° |
| 2026-05-04 19:46 | 51.41178 | 0.62420 | 13982 ft | 361 kts | 170° |
| 2026-05-04 19:47 | 51.38754 | 0.63600 | 14948 ft | 369 kts | 159° |
| 2026-05-04 19:47 | 51.36324 | 0.64929 | 15938 ft | 378 kts | 163° |
| 2026-05-04 19:47 | 51.33788 | 0.66145 | 16959 ft | 384 kts | 163° |
| 2026-05-04 19:47 | 51.31228 | 0.67495 | 18033 ft | 389 kts | 161° |
| 2026-05-04 19:48 | 51.28657 | 0.68883 | 19015 ft | 392 kts | 162° |
| 2026-05-04 19:48 | 51.26066 | 0.70254 | 19984 ft | 393 kts | 162° |
| 2026-05-04 19:48 | 51.23508 | 0.71752 | 20988 ft | 392 kts | 156° |
| 2026-05-04 19:48 | 51.21026 | 0.73540 | 22028 ft | 391 kts | 158° |
| 2026-05-04 19:49 | 51.18553 | 0.75184 | 23091 ft | 389 kts | 159° |
| 2026-05-04 19:49 | 51.16037 | 0.76882 | 24104 ft | 387 kts | 158° |
| 2026-05-04 19:49 | 51.13611 | 0.78554 | 25054 ft | 383 kts | 158° |
| 2026-05-04 19:49 | 51.11173 | 0.80239 | 25928 ft | 383 kts | 158° |
| 2026-05-04 19:50 | 51.08663 | 0.81943 | 26004 ft | 402 kts | 159° |
| 2026-05-04 19:50 | 51.05956 | 0.83299 | 26009 ft | 417 kts | 169° |
| 2026-05-04 19:50 | 51.03038 | 0.83823 | 26020 ft | 430 kts | 179° |
| 2026-05-04 19:50 | 51.00082 | 0.83503 | 26017 ft | 408 kts | 189° |
| 2026-05-04 19:51 | 50.97433 | 0.82488 | 26007 ft | 385 kts | 198° |
| 2026-05-04 19:51 | 50.94990 | 0.80851 | 26001 ft | 374 kts | 207° |
| 2026-05-04 19:51 | 50.92817 | 0.78688 | 26004 ft | 365 kts | 215° |
| 2026-05-04 19:51 | 50.90855 | 0.76184 | 26003 ft | 358 kts | 218° |
| 2026-05-04 19:52 | 50.88958 | 0.73776 | 26000 ft | 352 kts | 217° |
| 2026-05-04 19:52 | 50.87061 | 0.71372 | 25997 ft | 347 kts | 218° |
| 2026-05-04 19:52 | 50.85165 | 0.68968 | 25997 ft | 342 kts | 218° |
| 2026-05-04 19:52 | 50.83343 | 0.66638 | 26000 ft | 339 kts | 218° |
| 2026-05-04 19:53 | 50.81515 | 0.64321 | 25997 ft | 336 kts | 217° |
| 2026-05-04 19:53 | 50.79701 | 0.62016 | 25994 ft | 333 kts | 218° |
| 2026-05-04 19:53 | 50.77896 | 0.59736 | 25996 ft | 331 kts | 217° |
| 2026-05-04 19:53 | 50.76108 | 0.57465 | 25993 ft | 329 kts | 217° |
| 2026-05-04 19:54 | 50.74325 | 0.55215 | 25994 ft | 328 kts | 217° |
| 2026-05-04 19:54 | 50.72548 | 0.52965 | 25991 ft | 326 kts | 217° |
| 2026-05-04 19:54 | 50.70794 | 0.50757 | 25989 ft | 325 kts | 217° |
| 2026-05-04 19:54 | 50.69027 | 0.48522 | 25990 ft | 324 kts | 217° |
| 2026-05-04 19:55 | 50.67264 | 0.46309 | 25989 ft | 323 kts | 217° |
| 2026-05-04 19:55 | 50.65534 | 0.44125 | 25991 ft | 323 kts | 217° |
| 2026-05-04 19:55 | 50.63780 | 0.41927 | 25988 ft | 322 kts | 217° |
| 2026-05-04 19:55 | 50.62031 | 0.39723 | 25983 ft | 322 kts | 217° |
| 2026-05-04 19:56 | 50.60284 | 0.37524 | 25987 ft | 321 kts | 217° |
| 2026-05-04 19:56 | 50.58538 | 0.35330 | 25989 ft | 321 kts | 216° |
| 2026-05-04 19:56 | 50.56787 | 0.33157 | 25991 ft | 320 kts | 217° |
| 2026-05-04 19:56 | 50.55045 | 0.30979 | 25988 ft | 320 kts | 217° |
| 2026-05-04 19:57 | 50.53307 | 0.28800 | 25986 ft | 320 kts | 217° |
| 2026-05-04 19:57 | 50.51563 | 0.26622 | 25988 ft | 320 kts | 216° |
| 2026-05-04 19:57 | 50.49824 | 0.24453 | 25992 ft | 320 kts | 217° |
| 2026-05-04 19:57 | 50.48078 | 0.22281 | 25991 ft | 319 kts | 216° |
| 2026-05-04 19:58 | 50.46362 | 0.20140 | 25987 ft | 319 kts | 217° |
| 2026-05-04 19:58 | 50.44618 | 0.17975 | 25987 ft | 319 kts | 216° |
| 2026-05-04 19:58 | 50.42881 | 0.15811 | 25992 ft | 319 kts | 216° |
| 2026-05-04 19:58 | 50.41139 | 0.13654 | 25991 ft | 319 kts | 216° |
| 2026-05-04 19:59 | 50.39401 | 0.11493 | 25992 ft | 319 kts | 216° |
| 2026-05-04 19:59 | 50.37658 | 0.09340 | 25993 ft | 319 kts | 216° |
| 2026-05-04 19:59 | 50.35921 | 0.07182 | 25993 ft | 319 kts | 216° |
| 2026-05-04 19:59 | 50.34177 | 0.05032 | 25989 ft | 319 kts | 216° |
| 2026-05-04 20:00 | 50.32435 | 0.02873 | 25991 ft | 319 kts | 216° |
| 2026-05-04 20:00 | 50.30694 | 0.00731 | 25991 ft | 319 kts | 216° |
| 2026-05-04 20:00 | 50.28971 | -0.01400 | 25991 ft | 319 kts | 216° |
| 2026-05-04 20:00 | 50.27230 | -0.03538 | 25993 ft | 319 kts | 216° |
| 2026-05-04 20:01 | 50.25488 | -0.05689 | 25992 ft | 319 kts | 216° |
| 2026-05-04 20:01 | 50.23740 | -0.07832 | 25994 ft | 319 kts | 216° |
| 2026-05-04 20:01 | 50.21997 | -0.09979 | 25994 ft | 319 kts | 216° |
| 2026-05-04 20:01 | 50.20251 | -0.12115 | 25996 ft | 319 kts | 216° |
| 2026-05-04 20:02 | 50.18507 | -0.14259 | 25998 ft | 319 kts | 216° |
| 2026-05-04 20:02 | 50.16758 | -0.16397 | 25997 ft | 319 kts | 216° |
| 2026-05-04 20:02 | 50.15038 | -0.18506 | 25997 ft | 319 kts | 216° |
| 2026-05-04 20:02 | 50.13290 | -0.20639 | 25994 ft | 319 kts | 216° |
| 2026-05-04 20:03 | 50.11546 | -0.22772 | 25997 ft | 319 kts | 216° |
| 2026-05-04 20:03 | 50.09800 | -0.24901 | 26000 ft | 319 kts | 216° |
| 2026-05-04 20:03 | 50.08049 | -0.27036 | 25994 ft | 319 kts | 215° |
| 2026-05-04 20:03 | 50.06304 | -0.29162 | 25996 ft | 319 kts | 216° |
| 2026-05-04 20:04 | 50.04559 | -0.31283 | 25997 ft | 319 kts | 215° |
| 2026-05-04 20:04 | 50.02816 | -0.33406 | 25998 ft | 319 kts | 216° |
| 2026-05-04 20:04 | 50.01067 | -0.35525 | 25997 ft | 318 kts | 215° |
| 2026-05-04 20:04 | 49.99344 | -0.37621 | 25999 ft | 318 kts | 216° |
| 2026-05-04 20:05 | 49.97598 | -0.39731 | 26001 ft | 318 kts | 215° |
| 2026-05-04 20:05 | 49.95856 | -0.41847 | 26000 ft | 318 kts | 215° |
| 2026-05-04 20:05 | 49.94110 | -0.43953 | 26005 ft | 318 kts | 215° |
| 2026-05-04 20:05 | 49.92465 | -0.46248 | 25994 ft | 320 kts | 225° |
| 2026-05-04 20:06 | 49.91066 | -0.48936 | 25997 ft | 320 kts | 227° |
| 2026-05-04 20:06 | 49.89662 | -0.51611 | 25998 ft | 320 kts | 227° |
| 2026-05-04 20:06 | 49.88244 | -0.54344 | 25427 ft | 336 kts | 228° |
| 2026-05-04 20:06 | 49.86719 | -0.57266 | 24537 ft | 360 kts | 228° |
| 2026-05-04 20:07 | 49.85172 | -0.60274 | 24319 ft | 360 kts | 229° |
| 2026-05-04 20:07 | 49.83604 | -0.63281 | 24105 ft | 359 kts | 228° |
| 2026-05-04 20:07 | 49.82035 | -0.66288 | 23881 ft | 359 kts | 228° |
| 2026-05-04 20:07 | 49.80469 | -0.69281 | 23659 ft | 358 kts | 228° |
| 2026-05-04 20:08 | 49.78900 | -0.72291 | 23410 ft | 358 kts | 229° |
| 2026-05-04 20:08 | 49.77336 | -0.75281 | 23178 ft | 357 kts | 228° |
| 2026-05-04 20:08 | 49.75777 | -0.78257 | 22936 ft | 356 kts | 229° |
| 2026-05-04 20:08 | 49.74219 | -0.81232 | 22715 ft | 355 kts | 228° |
| 2026-05-04 20:09 | 49.72668 | -0.84183 | 22489 ft | 354 kts | 228° |
| 2026-05-04 20:09 | 49.71139 | -0.87100 | 22270 ft | 353 kts | 228° |
| 2026-05-04 20:09 | 49.69590 | -0.90035 | 22051 ft | 352 kts | 228° |
| 2026-05-04 20:09 | 49.68048 | -0.92977 | 21851 ft | 351 kts | 228° |
| 2026-05-04 20:10 | 49.66505 | -0.95890 | 21648 ft | 351 kts | 228° |
| 2026-05-04 20:10 | 49.64969 | -0.98814 | 21455 ft | 350 kts | 228° |
| 2026-05-04 20:10 | 49.63431 | -1.01713 | 21259 ft | 349 kts | 228° |
| 2026-05-04 20:10 | 49.61901 | -1.04617 | 21070 ft | 348 kts | 228° |
| 2026-05-04 20:11 | 49.60366 | -1.07506 | 20895 ft | 347 kts | 228° |
| 2026-05-04 20:11 | 49.58824 | -1.10368 | 20699 ft | 346 kts | 225° |
| 2026-05-04 20:11 | 49.57000 | -1.12733 | 20499 ft | 342 kts | 213° |
| 2026-05-04 20:11 | 49.55114 | -1.14887 | 20329 ft | 342 kts | 215° |
| 2026-05-04 20:12 | 49.53213 | -1.17069 | 20173 ft | 341 kts | 214° |
| 2026-05-04 20:12 | 49.51294 | -1.19210 | 20000 ft | 340 kts | 214° |
| 2026-05-04 20:12 | 49.49389 | -1.21363 | 19844 ft | 339 kts | 214° |
| 2026-05-04 20:12 | 49.47489 | -1.23507 | 19689 ft | 339 kts | 214° |
| 2026-05-04 20:13 | 49.45594 | -1.25656 | 19558 ft | 337 kts | 214° |
| 2026-05-04 20:13 | 49.43705 | -1.27773 | 19399 ft | 337 kts | 214° |
| 2026-05-04 20:13 | 49.41818 | -1.29905 | 19261 ft | 336 kts | 214° |
| 2026-05-04 20:13 | 49.39925 | -1.32024 | 19030 ft | 338 kts | 214° |
| 2026-05-04 20:14 | 49.38013 | -1.34182 | 18651 ft | 344 kts | 214° |
| 2026-05-04 20:14 | 49.36113 | -1.36306 | 18050 ft | 332 kts | 214° |
| 2026-05-04 20:14 | 49.34222 | -1.38437 | 17409 ft | 343 kts | 214° |
| 2026-05-04 20:14 | 49.32264 | -1.40617 | 16783 ft | 353 kts | 214° |
| 2026-05-04 20:15 | 49.30267 | -1.42858 | 16175 ft | 359 kts | 214° |
| 2026-05-04 20:15 | 49.28230 | -1.45131 | 15549 ft | 365 kts | 214° |
| 2026-05-04 20:15 | 49.26254 | -1.47346 | 14882 ft | 335 kts | 214° |
| 2026-05-04 20:15 | 49.24443 | -1.49371 | 14227 ft | 312 kts | 213° |
| 2026-05-04 20:16 | 49.22722 | -1.51274 | 13571 ft | 302 kts | 214° |
| 2026-05-04 20:16 | 49.20980 | -1.53215 | 12893 ft | 324 kts | 214° |
| 2026-05-04 20:16 | 49.19106 | -1.55288 | 12232 ft | 340 kts | 214° |
| 2026-05-04 20:16 | 49.17220 | -1.57405 | 11601 ft | 322 kts | 214° |
| 2026-05-04 20:17 | 49.15517 | -1.59287 | 11477 ft | 288 kts | 214° |
| 2026-05-04 20:17 | 49.13865 | -1.61123 | 11083 ft | 304 kts | 214° |
| 2026-05-04 20:17 | 49.12117 | -1.63045 | 10929 ft | 310 kts | 214° |
| 2026-05-04 20:17 | 49.10379 | -1.64988 | 10938 ft | 309 kts | 216° |
| 2026-05-04 20:18 | 49.08873 | -1.67300 | 10901 ft | 310 kts | 233° |
| 2026-05-04 20:18 | 49.07747 | -1.70112 | 10775 ft | 314 kts | 245° |
| 2026-05-04 20:18 | 49.07124 | -1.73321 | 10436 ft | 311 kts | 259° |
| 2026-05-04 20:18 | 49.07012 | -1.76464 | 9976 ft | 287 kts | 275° |
| 2026-05-04 20:19 | 49.07165 | -1.79414 | 9481 ft | 274 kts | 272° |
| 2026-05-04 20:19 | 49.07238 | -1.82236 | 8994 ft | 267 kts | 274° |
| 2026-05-04 20:19 | 49.07378 | -1.85006 | 8743 ft | 256 kts | 275° |
| 2026-05-04 20:19 | 49.07485 | -1.87665 | 8556 ft | 247 kts | 274° |
| 2026-05-04 20:20 | 49.07597 | -1.90259 | 8374 ft | 242 kts | 274° |
| 2026-05-04 20:20 | 49.07696 | -1.92804 | 8195 ft | 239 kts | 274° |
| 2026-05-04 20:20 | 49.07805 | -1.95317 | 8022 ft | 237 kts | 274° |
| 2026-05-04 20:20 | 49.07902 | -1.97820 | 7860 ft | 239 kts | 274° |
| 2026-05-04 20:21 | 49.08016 | -2.00471 | 7702 ft | 258 kts | 274° |
| 2026-05-04 20:21 | 49.08123 | -2.03213 | 7512 ft | 260 kts | 274° |
| 2026-05-04 20:21 | 49.08343 | -2.08709 | 7123 ft | 263 kts | 274° |
| 2026-05-04 20:22 | 49.08455 | -2.11493 | 6920 ft | 263 kts | 274° |
| 2026-05-04 20:22 | 49.08565 | -2.14269 | 6721 ft | 263 kts | 274° |
| 2026-05-04 20:22 | 49.08673 | -2.17062 | 6520 ft | 263 kts | 274° |
| 2026-05-04 20:22 | 49.08777 | -2.19667 | 6407 ft | 225 kts | 274° |
| 2026-05-04 20:23 | 49.08870 | -2.22128 | 6149 ft | 239 kts | 274° |
| 2026-05-04 20:23 | 49.08974 | -2.24715 | 5945 ft | 248 kts | 274° |
| 2026-05-04 20:23 | 49.09071 | -2.27367 | 5755 ft | 253 kts | 274° |
| 2026-05-04 20:23 | 49.09177 | -2.30021 | 5569 ft | 255 kts | 274° |
| 2026-05-04 20:24 | 49.09274 | -2.32732 | 5379 ft | 257 kts | 274° |
| 2026-05-04 20:24 | 49.09383 | -2.35459 | 5189 ft | 258 kts | 274° |
| 2026-05-04 20:24 | 49.09479 | -2.38196 | 5000 ft | 259 kts | 274° |
| 2026-05-04 20:24 | 49.09588 | -2.40939 | 4802 ft | 259 kts | 274° |
| 2026-05-04 20:25 | 49.09681 | -2.43677 | 4683 ft | 256 kts | 274° |
| 2026-05-04 20:25 | 49.09786 | -2.46383 | 4232 ft | 248 kts | 274° |
| 2026-05-04 20:25 | 49.09873 | -2.48912 | 3999 ft | 227 kts | 274° |
| 2026-05-04 20:25 | 49.09960 | -2.51221 | 3940 ft | 212 kts | 274° |
| 2026-05-04 20:26 | 49.10079 | -2.53416 | 3839 ft | 200 kts | 283° |
| 2026-05-04 20:26 | 49.10586 | -2.55196 | 3708 ft | 175 kts | 301° |
| 2026-05-04 20:26 | 49.11334 | -2.56610 | 3315 ft | 175 kts | 320° |
| 2026-05-04 20:26 | 49.12344 | -2.57637 | 2867 ft | 175 kts | 335° |
| 2026-05-04 20:27 | 49.13323 | -2.58081 | 2351 ft | 146 kts | 351° |
| 2026-05-04 20:27 | 49.14404 | -2.58181 | 2011 ft | 158 kts | 8° |
| 2026-05-04 20:27 | 49.15436 | -2.57816 | 2009 ft | 149 kts | 18° |
| 2026-05-04 20:27 | 49.16338 | -2.57090 | 1999 ft | 146 kts | 35° |
| 2026-05-04 20:28 | 49.17104 | -2.56079 | 1999 ft | 145 kts | 49° |
| 2026-05-04 20:28 | 49.17680 | -2.54730 | 1990 ft | 160 kts | 62° |
| 2026-05-04 20:28 | 49.18036 | -2.53078 | 1999 ft | 169 kts | 80° |
| 2026-05-04 20:28 | 49.18187 | -2.51259 | 1999 ft | 175 kts | 79° |
| 2026-05-04 20:29 | 49.18382 | -2.49434 | 2000 ft | 178 kts | 81° |
| 2026-05-04 20:29 | 49.18545 | -2.47550 | 2000 ft | 180 kts | 80° |
| 2026-05-04 20:29 | 49.18727 | -2.45662 | 1999 ft | 180 kts | 81° |
| 2026-05-04 20:29 | 49.18894 | -2.43766 | 2001 ft | 181 kts | 81° |
| 2026-05-04 20:30 | 49.19047 | -2.41863 | 2003 ft | 180 kts | 84° |
| 2026-05-04 20:30 | 49.19191 | -2.39953 | 2005 ft | 181 kts | 81° |
| 2026-05-04 20:30 | 49.19353 | -2.38043 | 2006 ft | 182 kts | 82° |
| 2026-05-04 20:30 | 49.19506 | -2.36116 | 2009 ft | 182 kts | 81° |
| 2026-05-04 20:31 | 49.19654 | -2.34191 | 2004 ft | 182 kts | 82° |
| 2026-05-04 20:31 | 49.19805 | -2.32259 | 1950 ft | 185 kts | 81° |
| 2026-05-04 20:31 | 49.19956 | -2.30278 | 1829 ft | 190 kts | 83° |
| 2026-05-04 20:31 | 49.20101 | -2.28389 | 1779 ft | 168 kts | 82° |
| 2026-05-04 20:32 | 49.20227 | -2.26671 | 1647 ft | 161 kts | 83° |
| 2026-05-04 20:32 | 49.20332 | -2.25043 | 1301 ft | 144 kts | 82° |
| 2026-05-04 20:32 | 49.20453 | -2.23623 | 942 ft | 125 kts | 78° |
| 2026-05-04 20:32 | 49.20575 | -2.22379 | 640 ft | 114 kts | 79° |
| 2026-05-04 20:33 | 49.20659 | -2.21173 | 405 ft | 115 kts | 79° |
| 2026-05-04 20:33 | 49.20760 | -2.19995 | 279 ft | 101 kts | 81° |
| 2026-05-04 20:33 | 49.20817 | -2.19258 | 281 ft | 33 kts | 92° |
| 2026-05-04 20:33 | 49.20806 | -2.19109 | 280 ft | 7 kts | 105° |
| 2026-05-04 20:34 | 49.20791 | -2.19024 | 279 ft | 9 kts | 111° |
| 2026-05-04 20:34 | 49.20767 | -2.18933 | 279 ft | 10 kts | 111° |
| 2026-05-04 20:34 | 49.20740 | -2.18854 | 279 ft | 6 kts | 154° |
| 2026-05-04 20:34 | 49.20704 | -2.18872 | 279 ft | 4 kts | 264° |
| 2026-05-04 20:35 | 49.20699 | -2.18925 | 279 ft | 6 kts | 264° |
| 2026-05-04 20:35 | 49.20693 | -2.19002 | 279 ft | 8 kts | 262° |
| 2026-05-04 20:35 | 49.20685 | -2.19096 | 279 ft | 10 kts | 263° |
| 2026-05-04 20:35 | 49.20679 | -2.19182 | 279 ft | 7 kts | 269° |
| 2026-05-04 20:36 | 49.20691 | -2.19266 | 279 ft | 9 kts | 284° |
| 2026-05-04 20:36 | 49.20707 | -2.19362 | 279 ft | 10 kts | 282° |
| 2026-05-04 20:36 | 49.20706 | -2.19473 | 279 ft | 11 kts | 259° |
| 2026-05-04 20:36 | 49.20695 | -2.19570 | 279 ft | 6 kts | 260° |
| 2026-05-04 20:37 | 49.20675 | -2.19635 | 279 ft | 8 kts | 232° |
| 2026-05-04 20:37 | 49.20626 | -2.19686 | 279 ft | 10 kts | 219° |
| 2026-05-04 20:37 | 49.20612 | -2.19783 | 279 ft | 10 kts | 264° |
| 2026-05-04 20:37 | 49.20603 | -2.19891 | 279 ft | 8 kts | 263° |
| 2026-05-04 20:38 | 49.20565 | -2.19936 | 279 ft | 8 kts | 173° |
| 2026-05-04 20:38 | 49.20501 | -2.19926 | 279 ft | 10 kts | 174° |
| 2026-05-04 20:38 | 49.20434 | -2.19896 | 279 ft | 11 kts | 117° |
| 2026-05-04 20:38 | 49.20438 | -2.19779 | 279 ft | 11 kts | 84° |
| 2026-05-04 20:39 | 49.20440 | -2.19653 | 279 ft | 12 kts | 104° |
| 2026-05-04 20:39 | 49.20418 | -2.19522 | 279 ft | 13 kts | 104° |
| 2026-05-04 20:39 | 49.20399 | -2.19386 | 279 ft | 9 kts | 86° |
| 2026-05-04 20:39 | 49.20401 | -2.19352 | 279 ft | 4 kts | 83° |
| 2026-05-04 20:40 | 49.20402 | -2.19338 | 279 ft | 0 kts | 81° |
| 2026-05-04 20:40 | 49.20401 | -2.19329 | 279 ft | 1 kts | 126° |
| 2026-05-04 20:40 | 49.20399 | -2.19320 | 279 ft | 4 kts | 91° |
| 2026-05-04 20:40 | 49.20390 | -2.19305 | 279 ft | 3 kts | 177° |
| 2026-05-04 20:41 | 49.20361 | -2.19298 | 279 ft | 5 kts | 126° |
| 2026-05-04 20:41 | 49.20338 | -2.19270 | 279 ft | 3 kts | 193° |
| 2026-05-04 20:41 | 49.20326 | -2.19293 | 279 ft | 1 kts | 335° |
| 2026-05-04 20:41 | 49.20328 | -2.19294 | 279 ft | 0 kts | 1° |